Suttons Bay, Michigan
Current Conditions -  °F | °C
As of 2:53 PM on Sunday 23 Nov 2014 (Local Time) from KTVC Reporting Station
Light Rain Light Rain  
Wind Chill: 50°   Ceiling: 2000
Heat Index: 50°   Visibility: 7mi
Dew Point: 44°   Wind: 0mph
Humidity: 80%   Direction: NA
Pressure: 29.58"   Gusts: NA
Location:  44.98°N, 85.65°W
Report Text: KTVC 231953Z 00000KT 7SM -RA OVC020 10/07 A2958 RMK AO2 RAB39 SLP020 P0000 T01000067
Loading
Personal Weather Stations






























Interactive Weather Map New forecast layout! Learn more

10-Day Weather Forecast

Advertisements
Track Severe Weather on mobile